createdAt,value
2022-11-24T00:01:08.783Z,5.62
2022-11-24T00:03:35.528Z,5.83
2022-11-24T00:06:07.173Z,5.86
2022-11-24T00:08:37.810Z,5.58
2022-11-24T00:11:09.764Z,4.57
2022-11-24T00:13:39.678Z,3.70
2022-11-24T00:16:22.248Z,3.19
2022-11-24T00:18:50.570Z,4.16
2022-11-24T00:21:17.751Z,5.54
2022-11-24T00:23:44.963Z,5.92
2022-11-24T00:26:14.161Z,5.93
2022-11-24T00:28:41.519Z,5.88
2022-11-24T00:31:28.154Z,5.13
2022-11-24T00:33:57.929Z,4.08
2022-11-24T00:36:27.919Z,3.28
2022-11-24T00:38:59.503Z,2.68
2022-11-24T00:41:26.752Z,2.26
2022-11-24T00:43:53.698Z,1.92
2022-11-24T00:46:21.066Z,1.63
2022-11-24T00:48:48.094Z,1.38
2022-11-24T00:51:16.061Z,1.16
2022-11-24T00:53:43.107Z,1.07
2022-11-24T00:56:10.266Z,2.33
2022-11-24T00:58:37.098Z,3.58
2022-11-24T01:01:15.232Z,4.02
2022-11-24T01:03:42.351Z,4.19
2022-11-24T01:06:14.230Z,4.36
2022-11-24T01:08:41.066Z,4.62
2022-11-24T01:11:12.834Z,4.90
2022-11-24T01:13:39.650Z,5.15
2022-11-24T01:16:06.733Z,5.35
2022-11-24T01:18:33.435Z,5.52
2022-11-24T01:21:09.637Z,5.66
2022-11-24T01:23:37.059Z,5.79
2022-11-24T01:26:05.366Z,5.93
2022-11-24T01:28:32.174Z,6.08
2022-11-24T01:31:00.659Z,6.06
2022-11-24T01:33:27.693Z,5.20
2022-11-24T01:35:54.436Z,4.12
2022-11-24T01:38:21.173Z,4.64
2022-11-24T01:40:47.809Z,6.07
2022-11-24T01:43:20.390Z,6.85
2022-11-24T01:45:47.692Z,6.20
2022-11-24T01:48:27.352Z,4.80
2022-11-24T01:51:07.944Z,3.78
2022-11-24T01:53:35.194Z,3.06
2022-11-24T01:56:02.343Z,3.04
2022-11-24T01:58:29.492Z,4.05
2022-11-24T02:00:56.231Z,4.65
2022-11-24T02:03:28.340Z,5.03
2022-11-24T02:06:01.511Z,5.28
2022-11-24T02:08:40.408Z,5.49
2022-11-24T02:11:07.046Z,5.62
2022-11-24T02:13:36.551Z,5.73
2022-11-24T02:16:04.939Z,5.84
2022-11-24T02:18:31.567Z,5.90
2022-11-24T02:20:59.123Z,5.69
2022-11-24T02:23:41.631Z,4.77
2022-11-24T02:26:14.003Z,3.67
2022-11-24T02:28:40.535Z,2.91
2022-11-24T02:31:07.229Z,2.38
2022-11-24T02:33:34.224Z,1.95
2022-11-24T02:36:00.858Z,1.60
2022-11-24T02:38:33.839Z,1.39
2022-11-24T02:41:08.042Z,2.29
2022-11-24T02:43:39.414Z,3.30
2022-11-24T02:46:06.322Z,3.88
2022-11-24T02:48:32.951Z,4.30
2022-11-24T02:50:59.521Z,4.65
2022-11-24T02:53:26.055Z,4.93
2022-11-24T02:55:52.690Z,5.10
2022-11-24T02:58:19.428Z,5.29
2022-11-24T03:00:46.065Z,5.48
2022-11-24T03:03:12.707Z,5.71
2022-11-24T03:05:39.340Z,5.90
2022-11-24T03:08:06.080Z,6.00
2022-11-24T03:10:32.715Z,6.11
2022-11-24T03:12:59.457Z,6.22
2022-11-24T03:15:26.093Z,5.86
2022-11-24T03:17:54.263Z,4.90
2022-11-24T03:20:20.798Z,4.07
2022-11-24T03:22:47.331Z,3.42
2022-11-24T03:25:14.276Z,2.90
2022-11-24T03:27:40.811Z,2.49
2022-11-24T03:30:08.375Z,2.17
2022-11-24T03:32:34.862Z,1.87
2022-11-24T03:35:01.437Z,1.60
2022-11-24T03:37:27.985Z,1.36
2022-11-24T03:39:54.609Z,1.13
2022-11-24T03:42:21.109Z,0.94
2022-11-24T03:44:47.607Z,0.79
2022-11-24T03:47:14.119Z,0.66
2022-11-24T03:49:41.015Z,0.53
2022-11-24T03:52:08.545Z,0.41
2022-11-24T03:54:35.435Z,0.30
2022-11-24T03:57:02.197Z,0.29
2022-11-24T03:59:28.727Z,1.38
2022-11-24T04:01:55.733Z,3.13
2022-11-24T04:04:22.366Z,4.30
2022-11-24T04:06:48.843Z,4.97
2022-11-24T04:09:15.585Z,5.31
2022-11-24T04:12:00.757Z,5.56
2022-11-24T04:14:27.381Z,5.81
2022-11-24T04:16:53.923Z,6.07
2022-11-24T04:19:20.667Z,6.28
2022-11-24T04:21:47.300Z,6.47
2022-11-24T04:24:14.354Z,6.25
2022-11-24T04:26:40.983Z,5.25
2022-11-24T04:29:09.158Z,4.37
2022-11-24T04:31:35.805Z,3.72
2022-11-24T04:34:02.427Z,3.21
2022-11-24T04:36:28.975Z,2.80
2022-11-24T04:39:19.469Z,2.77
2022-11-24T04:41:42.204Z,4.06
2022-11-24T04:44:08.739Z,5.12
2022-11-24T04:46:35.558Z,5.77
2022-11-24T04:49:02.251Z,6.20
2022-11-24T04:51:29.413Z,6.58
2022-11-24T04:53:56.004Z,6.69
2022-11-24T04:56:22.740Z,5.83
2022-11-24T04:58:51.938Z,4.83
2022-11-24T05:01:18.610Z,4.09
2022-11-24T05:03:45.461Z,3.51
2022-11-24T05:06:12.055Z,3.05
2022-11-24T05:08:38.690Z,2.65
2022-11-24T05:11:06.349Z,2.30
2022-11-24T05:13:32.987Z,2.00
2022-11-24T05:16:01.062Z,1.72
2022-11-24T05:18:28.414Z,1.47
2022-11-24T05:20:55.252Z,1.23
2022-11-24T05:23:21.788Z,1.01
2022-11-24T05:25:48.423Z,0.89
2022-11-24T05:28:15.124Z,1.78
2022-11-24T05:30:41.705Z,3.16
2022-11-24T05:33:18.478Z,3.94
2022-11-24T05:35:46.445Z,4.39
2022-11-24T05:38:12.985Z,4.75
2022-11-24T05:40:40.134Z,5.04
2022-11-24T05:43:16.179Z,5.27
2022-11-24T05:45:43.229Z,5.45
2022-11-24T05:48:12.265Z,5.63
2022-11-24T05:50:39.058Z,5.74
2022-11-24T05:53:08.061Z,5.75
2022-11-24T05:55:34.893Z,5.81
2022-11-24T05:58:07.096Z,5.87
2022-11-24T06:00:34.207Z,6.00
2022-11-24T06:03:01.203Z,6.14
2022-11-24T06:05:28.730Z,6.31
2022-11-24T06:07:55.614Z,6.12
2022-11-24T06:10:23.420Z,5.18
2022-11-24T06:12:50.365Z,4.30
2022-11-24T06:15:16.998Z,3.62
2022-11-24T06:17:43.878Z,3.11
2022-11-24T06:20:10.987Z,2.73
2022-11-24T06:22:37.732Z,2.42
2022-11-24T06:25:05.183Z,2.13
2022-11-24T06:27:31.922Z,1.87
2022-11-24T06:29:58.420Z,1.64
2022-11-24T06:32:24.896Z,1.45
2022-11-24T06:34:51.538Z,1.29
2022-11-24T06:37:18.265Z,1.14
2022-11-24T06:39:44.824Z,0.99
2022-11-24T06:42:11.387Z,0.87
2022-11-24T06:44:38.893Z,0.77
2022-11-24T06:47:05.325Z,0.67
2022-11-24T06:49:31.857Z,0.59
2022-11-24T06:51:58.598Z,0.52
2022-11-24T06:54:25.100Z,0.47
2022-11-24T06:56:58.608Z,0.55
2022-11-24T06:59:25.984Z,2.09
2022-11-24T07:01:53.028Z,3.94
2022-11-24T07:04:19.589Z,4.89
2022-11-24T07:06:46.065Z,5.38
2022-11-24T07:09:13.071Z,5.67
2022-11-24T07:11:40.047Z,5.84
2022-11-24T07:14:07.032Z,6.04
2022-11-24T07:16:33.665Z,6.29
2022-11-24T07:19:00.473Z,6.48
2022-11-24T07:21:28.067Z,6.51
2022-11-24T07:23:55.876Z,5.59
2022-11-24T07:26:23.017Z,4.51
2022-11-24T07:28:50.229Z,3.67
2022-11-24T07:31:19.676Z,3.22
2022-11-24T07:33:53.345Z,3.97
2022-11-24T07:36:20.236Z,4.68
2022-11-24T07:38:47.124Z,5.24
2022-11-24T07:41:14.734Z,5.59
2022-11-24T07:43:41.872Z,5.85
2022-11-24T07:46:10.342Z,5.99
2022-11-24T07:48:37.172Z,6.20
2022-11-24T07:51:04.099Z,6.35
2022-11-24T07:53:31.548Z,6.55
2022-11-24T07:56:02.381Z,6.61
2022-11-24T07:58:32.940Z,5.95
2022-11-24T08:01:07.733Z,5.09
2022-11-24T08:03:34.950Z,4.39
2022-11-24T08:09:01.059Z,3.39
2022-11-24T08:11:27.895Z,3.12
2022-11-24T08:13:54.752Z,2.91
2022-11-24T08:16:21.359Z,2.76
2022-11-24T08:18:50.381Z,2.62
2022-11-24T08:21:17.172Z,2.51
2022-11-24T08:23:43.627Z,2.42
2022-11-24T08:26:17.059Z,2.37
2022-11-24T08:28:44.652Z,2.32
2022-11-24T08:31:13.580Z,2.29
2022-11-24T08:33:40.380Z,2.25
2022-11-24T08:36:16.604Z,2.25
2022-11-24T08:38:44.152Z,3.33
2022-11-24T08:41:14.077Z,4.56
2022-11-24T08:43:40.768Z,5.27
2022-11-24T08:46:09.881Z,5.80
2022-11-24T08:48:36.598Z,6.28
2022-11-24T08:51:14.994Z,6.67
2022-11-24T08:53:41.872Z,7.06
2022-11-24T08:56:08.906Z,7.33
2022-11-24T08:58:35.904Z,7.26
2022-11-24T09:01:07.617Z,6.51
2022-11-24T09:03:34.405Z,5.80
2022-11-24T09:06:01.746Z,5.28
2022-11-24T09:08:30.009Z,4.90
2022-11-24T09:11:04.530Z,4.62
2022-11-24T09:13:31.034Z,4.36
2022-11-24T09:16:03.752Z,4.36
2022-11-24T09:18:30.641Z,5.50
2022-11-24T09:21:12.640Z,6.34
2022-11-24T09:23:39.508Z,6.78
2022-11-24T09:26:12.485Z,7.02
2022-11-24T09:28:39.478Z,7.14
2022-11-24T09:31:08.672Z,7.07
2022-11-24T09:33:35.587Z,7.07
2022-11-24T09:36:02.122Z,7.14
2022-11-24T09:38:28.669Z,7.34
2022-11-24T09:40:55.491Z,7.06
2022-11-24T09:43:25.023Z,6.12
2022-11-24T09:46:26.427Z,5.26
2022-11-24T09:48:54.304Z,4.57
2022-11-24T09:51:28.151Z,4.37
2022-11-24T09:54:01.450Z,5.24
2022-11-24T09:56:30.293Z,5.79
2022-11-24T09:59:19.242Z,6.21
2022-11-24T10:01:46.567Z,6.64
2022-11-24T10:04:25.870Z,6.90
2022-11-24T10:07:10.701Z,7.05
2022-11-24T10:10:24.603Z,7.04
2022-11-24T10:13:23.432Z,7.19
2022-11-24T10:16:02.231Z,7.03
2022-11-24T10:19:03.972Z,5.96
2022-11-24T10:21:37.842Z,4.99
2022-11-24T10:24:40.905Z,4.95
2022-11-24T10:27:19.051Z,5.79
2022-11-24T10:29:49.399Z,6.38
2022-11-24T10:32:34.625Z,6.64
2022-11-24T10:35:15.614Z,6.84
2022-11-24T10:37:56.275Z,6.92
2022-11-24T10:43:22.494Z,6.74
2022-11-24T10:45:49.155Z,5.74
2022-11-24T10:48:24.770Z,5.71
2022-11-24T10:51:04.828Z,6.35
2022-11-24T10:53:31.445Z,6.89
2022-11-24T10:56:00.541Z,7.17
2022-11-24T10:58:38.039Z,7.24
2022-11-24T11:01:14.155Z,6.39
2022-11-24T11:03:59.192Z,5.48
2022-11-24T11:06:28.379Z,4.84
2022-11-24T11:09:07.102Z,4.43
2022-11-24T11:11:34.688Z,4.16
2022-11-24T11:14:17.386Z,4.44
2022-11-24T11:16:52.099Z,5.82
2022-11-24T11:19:50.354Z,6.69
2022-11-24T11:22:26.901Z,7.14
2022-11-24T11:25:11.906Z,7.30
2022-11-24T11:27:39.611Z,6.81
2022-11-24T11:35:49.867Z,6.52
2022-11-24T11:38:16.394Z,6.66
2022-11-24T11:40:43.313Z,6.71
2022-11-24T11:43:25.841Z,6.94
2022-11-24T11:46:02.836Z,6.87
2022-11-24T11:48:40.670Z,6.95
2022-11-24T11:51:23.232Z,6.36
2022-11-24T11:54:36.415Z,5.44
2022-11-24T11:57:16.581Z,4.65
2022-11-24T11:59:54.781Z,4.27
2022-11-24T12:02:53.041Z,4.06
2022-11-24T12:05:33.936Z,4.27
2022-11-24T12:08:21.383Z,5.42
2022-11-24T12:11:21.604Z,6.21
2022-11-24T12:13:57.897Z,6.57
2022-11-24T12:16:45.070Z,6.83
2022-11-24T12:19:36.213Z,6.81
2022-11-24T12:22:54.441Z,5.80
2022-11-24T12:26:10.757Z,4.81
2022-11-24T12:28:58.715Z,4.17
2022-11-24T12:31:50.850Z,3.77
2022-11-24T12:34:25.876Z,4.26
2022-11-24T12:37:23.169Z,5.20
2022-11-24T12:40:03.166Z,5.87
2022-11-24T12:43:38.275Z,6.25
2022-11-24T12:46:17.785Z,6.62
2022-11-24T12:49:11.848Z,6.85
2022-11-24T12:51:42.045Z,7.01
2022-11-24T12:54:19.539Z,6.93
2022-11-24T12:56:55.885Z,6.01
2022-11-24T12:59:57.200Z,5.13
2022-11-24T13:02:57.988Z,4.38
2022-11-24T13:05:43.339Z,3.83
2022-11-24T13:08:09.926Z,3.43
2022-11-24T13:10:55.470Z,3.09
2022-11-24T13:13:25.989Z,2.79
2022-11-24T13:16:07.146Z,2.78
2022-11-24T13:18:58.891Z,3.79
2022-11-24T13:22:09.191Z,4.71
2022-11-24T13:24:39.569Z,5.27
2022-11-24T13:27:15.366Z,5.65
2022-11-24T13:29:42.962Z,5.91
2022-11-24T13:32:11.083Z,6.23
2022-11-24T13:34:44.984Z,6.55
2022-11-24T13:37:34.909Z,6.77
2022-11-24T13:40:23.239Z,6.95
2022-11-24T13:42:56.589Z,6.76
2022-11-24T13:45:38.294Z,5.76
2022-11-24T13:48:27.628Z,4.87
2022-11-24T13:50:54.203Z,4.20
2022-11-24T13:53:43.047Z,3.75
2022-11-24T13:56:28.264Z,3.35
2022-11-24T13:59:16.699Z,3.03
2022-11-24T14:01:46.129Z,2.75
2022-11-24T14:04:42.316Z,2.52
2022-11-24T14:07:11.345Z,2.30
2022-11-24T14:09:46.000Z,2.14
2022-11-24T14:12:23.345Z,2.06
2022-11-24T14:14:51.836Z,3.11
2022-11-24T14:17:22.526Z,4.18
2022-11-24T14:19:51.669Z,4.81
2022-11-24T14:22:20.820Z,5.25
2022-11-24T14:24:58.535Z,5.56
2022-11-24T14:27:33.876Z,5.86
2022-11-24T14:30:09.912Z,6.07
2022-11-24T14:32:37.342Z,6.26
2022-11-24T14:35:33.393Z,6.34
2022-11-24T14:38:04.636Z,6.47
2022-11-24T14:40:40.892Z,6.55
2022-11-24T14:43:30.749Z,6.62
2022-11-24T14:46:02.022Z,6.71
2022-11-24T14:48:44.728Z,6.73
2022-11-24T14:51:19.877Z,5.93
2022-11-24T14:53:52.141Z,4.97
2022-11-24T14:56:33.934Z,4.26
2022-11-24T14:59:00.476Z,3.70
2022-11-24T15:01:27.106Z,3.29
2022-11-24T15:04:26.957Z,3.23
2022-11-24T15:07:28.507Z,4.44
2022-11-24T15:09:57.380Z,5.19
2022-11-24T15:12:28.298Z,5.56
2022-11-24T15:14:58.248Z,5.86
2022-11-24T15:17:27.272Z,6.12
2022-11-24T15:19:57.877Z,6.36
2022-11-24T15:22:39.230Z,6.58
2022-11-24T15:25:32.967Z,6.80
2022-11-24T15:28:00.446Z,6.99
2022-11-24T15:30:27.110Z,6.99
2022-11-24T15:32:57.475Z,6.17
2022-11-24T15:35:26.094Z,5.19
2022-11-24T15:37:52.652Z,4.40
2022-11-24T15:40:19.896Z,3.74
2022-11-24T15:42:54.287Z,3.21
2022-11-24T15:45:23.388Z,2.75
2022-11-24T15:47:50.336Z,2.38
2022-11-24T15:50:17.274Z,2.54
2022-11-24T15:52:44.528Z,3.68
2022-11-24T15:55:21.136Z,4.35
2022-11-24T15:57:48.353Z,4.75
2022-11-24T16:00:17.067Z,5.06
2022-11-24T16:02:43.668Z,5.30
2022-11-24T16:05:11.148Z,5.52
2022-11-24T16:07:37.808Z,5.69
2022-11-24T16:10:06.143Z,5.85
2022-11-24T16:12:32.595Z,5.96
2022-11-24T16:14:58.999Z,6.05
2022-11-24T16:17:25.640Z,6.13
2022-11-24T16:20:00.159Z,6.24
2022-11-24T16:22:27.474Z,6.41
2022-11-24T16:24:54.048Z,6.56
2022-11-24T16:27:20.432Z,6.11
2022-11-24T16:29:46.842Z,5.14
2022-11-24T16:32:13.450Z,4.28
2022-11-24T16:34:40.013Z,3.65
2022-11-24T16:37:06.437Z,3.16
2022-11-24T16:39:33.255Z,2.72
2022-11-24T16:41:59.996Z,2.37
2022-11-24T16:44:27.040Z,2.29
2022-11-24T16:46:54.292Z,3.19
2022-11-24T16:49:20.868Z,4.16
2022-11-24T16:51:47.669Z,4.82
2022-11-24T16:54:14.308Z,5.23
2022-11-24T16:56:40.733Z,5.45
2022-11-24T16:59:07.501Z,5.68
2022-11-24T17:01:34.202Z,5.88
2022-11-24T17:04:01.214Z,6.04
2022-11-24T17:06:27.812Z,6.17
2022-11-24T17:08:54.517Z,6.27
2022-11-24T17:11:23.539Z,6.35
2022-11-24T17:13:50.133Z,6.47
2022-11-24T17:16:21.070Z,6.15
2022-11-24T17:18:48.046Z,5.17
2022-11-24T17:21:23.350Z,4.30
2022-11-24T17:23:57.471Z,3.67
2022-11-24T17:26:24.715Z,3.21
2022-11-24T17:28:51.692Z,2.85
2022-11-24T17:31:26.678Z,2.55
2022-11-24T17:33:55.720Z,2.24
2022-11-24T17:36:22.561Z,2.00
2022-11-24T17:38:49.810Z,1.79
2022-11-24T17:41:20.131Z,1.61
2022-11-24T17:43:51.765Z,1.44
2022-11-24T17:46:18.757Z,1.26
2022-11-24T17:48:46.494Z,1.11
2022-11-24T17:51:16.173Z,0.97
2022-11-24T17:53:44.890Z,1.35
2022-11-24T17:56:17.636Z,2.69
2022-11-24T17:58:44.273Z,3.63
2022-11-24T18:01:12.479Z,4.21
2022-11-24T18:03:40.343Z,4.67
2022-11-24T18:06:08.962Z,5.05
2022-11-24T18:08:36.219Z,5.42
2022-11-24T18:11:16.596Z,5.72
2022-11-24T18:14:00.991Z,5.95
2022-11-24T18:16:33.549Z,6.16
2022-11-24T18:19:08.674Z,6.34
2022-11-24T18:21:37.801Z,6.50
2022-11-24T18:24:04.844Z,6.64
2022-11-24T18:26:31.478Z,6.52
2022-11-24T18:28:58.117Z,5.61
2022-11-24T18:31:25.620Z,4.71
2022-11-24T18:33:52.411Z,4.02
2022-11-24T18:36:23.496Z,3.49
2022-11-24T18:38:52.342Z,3.05
2022-11-24T18:41:18.978Z,2.68
2022-11-24T18:43:45.819Z,2.33
2022-11-24T18:46:15.102Z,2.32
2022-11-24T18:48:42.779Z,3.19
2022-11-24T18:51:13.915Z,4.02
2022-11-24T18:53:41.992Z,4.59
2022-11-24T18:56:15.491Z,4.98
2022-11-24T18:58:42.534Z,5.21
2022-11-24T19:01:13.491Z,5.45
2022-11-24T19:03:52.111Z,5.66
2022-11-24T19:06:27.930Z,5.86
2022-11-24T19:08:54.608Z,6.03
2022-11-24T19:11:27.771Z,6.20
2022-11-24T19:13:55.643Z,6.30
2022-11-24T19:16:22.744Z,6.42
2022-11-24T19:18:53.587Z,6.51
2022-11-24T19:21:21.491Z,6.61
2022-11-24T19:23:48.633Z,6.72
2022-11-24T19:26:15.270Z,6.65
2022-11-24T19:28:41.804Z,5.78
2022-11-24T19:31:13.624Z,4.75
2022-11-24T19:33:40.622Z,3.92
2022-11-24T19:36:17.324Z,3.31
2022-11-24T19:38:49.947Z,2.83
2022-11-24T19:41:18.651Z,2.44
2022-11-24T19:43:46.619Z,2.10
2022-11-24T19:46:15.603Z,1.79
2022-11-24T19:48:44.389Z,1.55
2022-11-24T19:51:19.175Z,1.35
2022-11-24T19:53:45.757Z,1.19
2022-11-24T19:56:14.336Z,1.03
2022-11-24T19:58:43.998Z,0.89
2022-11-24T20:01:21.723Z,0.84
2022-11-24T20:03:54.903Z,1.83
2022-11-24T20:06:21.368Z,3.11
2022-11-24T20:08:47.934Z,4.22
2022-11-24T20:11:17.543Z,5.01
2022-11-24T20:13:45.062Z,5.46
2022-11-24T20:16:19.838Z,5.84
2022-11-24T20:18:47.142Z,6.35
2022-11-24T20:21:14.699Z,6.83
2022-11-24T20:23:41.696Z,7.22
2022-11-24T20:26:13.607Z,7.17
2022-11-24T20:28:40.756Z,6.12
2022-11-24T20:31:18.857Z,5.03
2022-11-24T20:33:45.843Z,4.15
2022-11-24T20:36:15.310Z,3.55
2022-11-24T20:38:42.253Z,3.05
2022-11-24T20:41:20.543Z,3.38
2022-11-24T20:43:47.505Z,4.74
2022-11-24T20:46:24.690Z,5.62
2022-11-24T20:48:53.374Z,5.89
2022-11-24T20:51:22.571Z,6.01
2022-11-24T20:53:50.022Z,6.16
2022-11-24T20:56:19.122Z,6.27
2022-11-24T20:58:46.163Z,6.35
2022-11-24T21:01:15.279Z,6.42
2022-11-24T21:03:43.536Z,6.13
2022-11-24T21:06:11.834Z,5.13
2022-11-24T21:08:39.986Z,4.23
2022-11-24T21:11:07.955Z,3.57
2022-11-24T21:13:35.519Z,3.04
2022-11-24T21:16:22.909Z,2.61
2022-11-24T21:18:51.906Z,2.40
2022-11-24T21:21:20.093Z,3.36
2022-11-24T21:23:47.557Z,4.31
2022-11-24T21:26:17.179Z,4.79
2022-11-24T21:28:45.832Z,4.99
2022-11-24T21:31:15.704Z,5.08
2022-11-24T21:33:48.114Z,5.20
2022-11-24T21:36:18.352Z,5.28
2022-11-24T21:38:53.545Z,5.26
2022-11-24T21:41:20.742Z,5.39
2022-11-24T21:43:47.480Z,5.43
2022-11-24T21:46:14.247Z,5.42
2022-11-24T21:48:41.671Z,5.50
2022-11-24T21:51:18.548Z,5.52
2022-11-24T21:53:45.597Z,5.54
2022-11-24T21:56:17.602Z,5.51
2022-11-24T21:58:52.929Z,5.48
2022-11-24T22:01:21.163Z,5.54
2022-11-24T22:03:47.919Z,5.58
2022-11-24T22:06:16.291Z,5.57
2022-11-24T22:08:42.838Z,5.63
2022-11-24T22:11:15.517Z,5.61
2022-11-24T22:13:42.854Z,5.53
2022-11-24T22:16:15.070Z,5.55
2022-11-24T22:18:42.785Z,5.52
2022-11-24T22:21:15.416Z,5.44
2022-11-24T22:23:41.974Z,5.45
2022-11-24T22:26:14.374Z,5.41
2022-11-24T22:28:41.723Z,5.48
2022-11-24T22:31:14.536Z,5.62
2022-11-24T22:33:41.348Z,5.59
2022-11-24T22:36:09.556Z,5.62
2022-11-24T22:38:36.258Z,5.61
2022-11-24T22:41:04.485Z,5.63
2022-11-24T22:43:32.551Z,5.72
2022-11-24T22:46:04.385Z,5.74
2022-11-24T22:48:31.313Z,5.61
2022-11-24T22:51:08.230Z,5.56
2022-11-24T22:53:35.025Z,5.60
2022-11-24T22:56:06.683Z,5.61
2022-11-24T22:58:33.627Z,5.63
2022-11-24T23:01:11.826Z,5.67
2022-11-24T23:03:38.689Z,5.69
2022-11-24T23:06:09.236Z,5.72
2022-11-24T23:08:36.287Z,5.80
2022-11-24T23:11:11.475Z,5.82
2022-11-24T23:13:38.118Z,5.75
2022-11-24T23:16:16.712Z,4.94
2022-11-24T23:18:44.603Z,3.96
2022-11-24T23:21:13.694Z,3.22
2022-11-24T23:23:40.587Z,2.62
2022-11-24T23:26:08.708Z,2.15
2022-11-24T23:28:35.456Z,1.76
2022-11-24T23:31:15.854Z,1.45
2022-11-24T23:33:42.752Z,1.17
2022-11-24T23:36:14.099Z,0.95
2022-11-24T23:38:41.144Z,0.76
2022-11-24T23:41:12.902Z,0.60
2022-11-24T23:43:40.667Z,0.46
2022-11-24T23:46:15.982Z,0.79
2022-11-24T23:48:42.845Z,2.07
2022-11-24T23:51:14.537Z,3.06
2022-11-24T23:53:41.241Z,3.73
2022-11-24T23:56:09.105Z,4.20
2022-11-24T23:58:35.639Z,4.56
